Terminal Aerodrome Forecast
Issued by NWS Newport/Morehead City, NC

Home | Current Version | Previous Version | Text Only | Print | Product List | Glossary On
Versions: 1 2 3 4 5 6 7 8 9 10 11 12 13 14 15 16 17 18 19 20 21
000
FTUS42 KMHX 291720
TAFEWN
TAF
KEWN 291720Z 2918/3018 06006KT P6SM BKN015
     FM292000 07005KT P6SM FEW025 SCT040
     FM300800 VRB03KT 4SM BR BKN008
     FM301400 06005KT P6SM BKN015
     FM301600 07006KT P6SM BKN035=

USA.gov is the U.S. government's official web portal to all federal, state and local government web resources and services.